Time;durP1;ratioP1;P1;durP2;ratioP2;P2;SDS_P1;SDS_P2;PMS_P1;PMS_P2;Temp;Humidity;BMP_temperature;BMP_pressure;BME280_temperature;BME280_humidity;BME280_pressure;Samples;Min_cycle;Max_cycle;Signal;HPM_P1;HPM_P2
2023/12/27 02:23:36;;;;;;;3.70;2.37;;;7.10;99.90;;;;;;5062962;23;20256;-32
2023/12/27 02:26:04;;;;;;;4.67;2.90;;;7.10;99.90;;;;;;5031177;28;20183;-33
2023/12/27 02:28:30;;;;;;;5.73;2.57;;;7.10;99.90;;;;;;5011054;28;20181;-33
2023/12/27 02:30:56;;;;;;;5.80;2.77;;;7.10;99.90;;;;;;5020724;28;20179;-34
2023/12/27 02:33:22;;;;;;;4.83;2.37;;;7.10;99.90;;;;;;5045324;28;20178;-33
2023/12/27 02:35:47;;;;;;;5.87;2.63;;;7.10;99.90;;;;;;4988890;28;20206;-37
2023/12/27 02:38:13;;;;;;;5.77;2.53;;;7.10;99.90;;;;;;5052010;23;20229;-39
2023/12/27 02:40:39;;;;;;;5.97;2.60;;;7.10;99.90;;;;;;5013285;28;20177;-40
2023/12/27 02:43:05;;;;;;;5.13;2.67;;;7.00;99.90;;;;;;5022684;28;20182;-41
2023/12/27 02:45:31;;;;;;;5.80;2.63;;;6.90;99.90;;;;;;5012332;28;20276;-41
2023/12/27 02:47:56;;;;;;;3.93;2.40;;;6.90;99.90;;;;;;5003826;28;20213;-43
2023/12/27 02:50:22;;;;;;;4.47;2.57;;;6.80;99.90;;;;;;5022977;28;20263;-43
2023/12/27 02:52:48;;;;;;;6.10;2.93;;;6.90;99.90;;;;;;5012099;28;20175;-43
2023/12/27 02:55:14;;;;;;;4.80;2.80;;;6.90;99.90;;;;;;5007563;28;20185;-42
2023/12/27 02:57:40;;;;;;;8.97;2.90;;;6.90;99.90;;;;;;5012900;28;20206;-43
2023/12/27 03:00:06;;;;;;;4.87;2.80;;;6.90;99.90;;;;;;5008993;28;20198;-43
2023/12/27 03:02:32;;;;;;;5.27;2.50;;;6.90;99.90;;;;;;5013063;28;20213;-43
2023/12/27 03:04:58;;;;;;;4.73;2.80;;;6.90;99.90;;;;;;5002604;28;20285;-42
2023/12/27 03:07:23;;;;;;;6.10;2.73;;;6.90;99.90;;;;;;5011514;28;20689;-43
2023/12/27 03:09:49;;;;;;;5.30;2.60;;;7.00;99.90;;;;;;5041143;28;20352;-43
2023/12/27 03:12:15;;;;;;;5.43;3.27;;;7.00;99.90;;;;;;5021860;28;20658;-43
2023/12/27 03:14:42;;;;;;;4.30;2.80;;;7.00;99.90;;;;;;5012266;28;20179;-42
2023/12/27 03:17:07;;;;;;;3.93;2.63;;;7.00;99.90;;;;;;5006165;28;20207;-43
2023/12/27 03:19:33;;;;;;;4.67;2.37;;;7.00;99.90;;;;;;5036107;28;20273;-43
2023/12/27 03:21:59;;;;;;;9.40;2.77;;;7.10;99.90;;;;;;4995730;28;20195;-43
2023/12/27 03:24:25;;;;;;;4.07;2.60;;;7.10;99.90;;;;;;5000013;28;20181;-42
2023/12/27 03:26:50;;;;;;;6.00;2.80;;;7.10;99.90;;;;;;5002618;28;20293;-42
2023/12/27 03:29:16;;;;;;;3.80;2.53;;;7.10;99.90;;;;;;5003474;28;20214;-43
2023/12/27 03:31:42;;;;;;;6.80;3.13;;;7.10;99.90;;;;;;5012949;28;20270;-42
2023/12/27 03:34:08;;;;;;;4.27;2.67;;;7.10;99.90;;;;;;5014151;28;20194;-43
2023/12/27 03:36:33;;;;;;;5.87;2.83;;;7.10;99.90;;;;;;5008815;28;20178;-43
2023/12/27 03:38:59;;;;;;;5.00;2.10;;;7.00;99.90;;;;;;5019266;28;20281;-42
2023/12/27 03:41:25;;;;;;;4.00;2.50;;;7.00;99.90;;;;;;5011180;28;20182;-43
2023/12/27 03:43:54;;;;;;;6.47;2.90;;;7.00;99.90;;;;;;5012881;28;20666;-43
2023/12/27 03:46:20;;;;;;;3.77;2.47;;;6.90;99.90;;;;;;5023128;28;20208;-42
2023/12/27 03:48:46;;;;;;;3.87;2.30;;;6.90;99.90;;;;;;5010629;28;20685;-43
2023/12/27 03:51:12;;;;;;;5.33;2.60;;;6.90;99.90;;;;;;5016807;28;20185;-42
2023/12/27 03:53:38;;;;;;;3.53;2.40;;;6.90;99.90;;;;;;5012227;28;20205;-43
2023/12/27 03:56:08;;;;;;;6.97;2.90;;;6.90;99.90;;;;;;5006346;28;20186;-42
2023/12/27 03:58:34;;;;;;;4.93;2.83;;;6.80;99.90;;;;;;5017177;28;20198;-42
2023/12/27 04:01:00;;;;;;;4.00;2.60;;;6.70;99.90;;;;;;5025076;28;20193;-43
2023/12/27 04:03:26;;;;;;;3.93;2.37;;;6.70;99.90;;;;;;5024776;28;20269;-43
2023/12/27 04:05:51;;;;;;;5.07;2.63;;;6.70;99.90;;;;;;5015827;28;20179;-42
2023/12/27 04:08:17;;;;;;;6.93;2.97;;;6.60;99.90;;;;;;5015801;28;20201;-43
2023/12/27 04:10:43;;;;;;;4.97;2.53;;;6.60;99.90;;;;;;5023616;28;20227;-43
2023/12/27 04:13:10;;;;;;;4.00;2.27;;;6.50;99.90;;;;;;5023891;28;20220;-42
2023/12/27 04:15:36;;;;;;;4.00;2.40;;;6.50;99.90;;;;;;5021879;28;20206;-42
2023/12/27 04:18:02;;;;;;;5.10;2.57;;;6.40;99.90;;;;;;5005162;28;20191;-43
2023/12/27 04:20:27;;;;;;;3.70;2.70;;;6.40;99.90;;;;;;5012673;28;20187;-43
2023/12/27 04:22:53;;;;;;;4.10;2.70;;;6.30;99.90;;;;;;5021822;28;20301;-43
2023/12/27 04:25:19;;;;;;;5.17;2.77;;;6.30;99.90;;;;;;5014150;28;20193;-42
2023/12/27 04:27:45;;;;;;;5.13;2.90;;;6.30;99.90;;;;;;5001401;28;20217;-42
2023/12/27 04:30:11;;;;;;;6.27;3.00;;;6.20;99.90;;;;;;5015453;28;20213;-42
2023/12/27 04:32:37;;;;;;;4.50;2.60;;;6.10;99.90;;;;;;5014217;28;20268;-43
2023/12/27 04:35:03;;;;;;;4.63;2.83;;;6.10;99.90;;;;;;5000119;28;20248;-43
2023/12/27 04:37:28;;;;;;;4.17;3.00;;;6.00;99.90;;;;;;5012118;28;20224;-42
2023/12/27 04:39:54;;;;;;;4.57;3.00;;;6.00;99.90;;;;;;5014393;28;20686;-42
2023/12/27 04:42:20;;;;;;;10.20;3.50;;;5.90;99.90;;;;;;5007336;28;20209;-42
2023/12/27 04:44:46;;;;;;;4.10;2.90;;;5.90;99.90;;;;;;5013426;28;20174;-42
2023/12/27 04:47:13;;;;;;;5.07;3.30;;;5.90;99.90;;;;;;5020431;28;20210;-43
2023/12/27 04:49:38;;;;;;;3.93;3.33;;;5.90;99.90;;;;;;5013651;28;20202;-42
2023/12/27 04:52:05;;;;;;;6.80;3.40;;;5.90;99.90;;;;;;5021939;28;20186;-42
2023/12/27 04:54:31;;;;;;;6.17;3.13;;;5.90;99.90;;;;;;5015451;28;20181;-42
2023/12/27 04:56:56;;;;;;;5.73;3.60;;;5.90;99.90;;;;;;5014929;28;20203;-42
2023/12/27 04:59:22;;;;;;;5.87;3.10;;;5.80;99.90;;;;;;5013043;28;20178;-42
2023/12/27 05:01:50;;;;;;;7.30;3.23;;;5.70;99.90;;;;;;5014082;28;20280;-42
2023/12/27 05:04:16;;;;;;;4.27;3.03;;;5.60;99.90;;;;;;5007253;28;20184;-42
2023/12/27 05:06:42;;;;;;;7.03;3.13;;;5.40;99.90;;;;;;5014155;28;20233;-42
2023/12/27 05:09:07;;;;;;;8.13;2.93;;;5.20;99.90;;;;;;5008960;28;20209;-42
2023/12/27 05:11:33;;;;;;;3.70;2.53;;;5.20;99.90;;;;;;5032789;28;20201;-42
2023/12/27 05:13:59;;;;;;;6.10;2.63;;;5.20;99.90;;;;;;5021153;28;20351;-42
2023/12/27 05:16:25;;;;;;;6.13;2.80;;;5.10;99.90;;;;;;5011475;28;20265;-42
2023/12/27 05:18:51;;;;;;;3.17;2.87;;;5.10;99.90;;;;;;5013360;28;20205;-42
2023/12/27 05:21:18;;;;;;;6.03;2.73;;;5.10;99.90;;;;;;5010920;28;20273;-42
2023/12/27 05:23:44;;;;;;;5.43;2.70;;;5.10;99.90;;;;;;5010630;28;20186;-42
2023/12/27 05:26:10;;;;;;;6.97;3.03;;;5.10;99.90;;;;;;5004348;28;20192;-41
2023/12/27 05:28:36;;;;;;;4.43;2.70;;;5.10;99.90;;;;;;5023144;28;20206;-42
2023/12/27 05:31:02;;;;;;;8.07;3.20;;;5.10;99.90;;;;;;5020348;28;20235;-42
2023/12/27 05:33:28;;;;;;;5.77;3.20;;;5.10;99.90;;;;;;5018261;28;20280;-42
2023/12/27 05:35:54;;;;;;;6.87;3.00;;;5.10;99.90;;;;;;4996835;28;20179;-42
2023/12/27 05:38:20;;;;;;;5.13;3.50;;;5.10;99.90;;;;;;4970685;28;1203121;-42
2023/12/27 05:40:45;;;;;;;5.93;4.23;;;5.10;99.90;;;;;;5018953;28;20181;-42
2023/12/27 05:43:11;;;;;;;6.30;3.80;;;5.10;99.90;;;;;;4997047;28;20690;-42
2023/12/27 05:45:37;;;;;;;6.70;3.63;;;5.10;99.90;;;;;;4996788;28;20185;-42
2023/12/27 05:48:03;;;;;;;5.90;3.50;;;5.10;99.90;;;;;;5019958;28;20271;-42
2023/12/27 05:50:29;;;;;;;5.00;3.57;;;5.10;99.90;;;;;;5020693;28;20267;-42
2023/12/27 05:52:55;;;;;;;5.40;3.27;;;5.00;99.90;;;;;;5009407;28;20171;-42
2023/12/27 05:55:21;;;;;;;3.87;2.60;;;5.10;99.90;;;;;;5006720;28;20700;-42
2023/12/27 05:57:47;;;;;;;5.40;2.90;;;5.10;99.90;;;;;;5014797;28;20226;-42
2023/12/27 06:00:15;;;;;;;3.83;2.60;;;5.00;99.90;;;;;;4996236;28;20237;-42
2023/12/27 06:02:41;;;;;;;6.20;2.93;;;5.00;99.90;;;;;;5023016;28;20231;-41
2023/12/27 06:05:09;;;;;;;4.70;2.80;;;5.10;99.90;;;;;;5021044;28;20209;-41
2023/12/27 06:07:36;;;;;;;5.50;2.90;;;5.00;99.90;;;;;;5024458;28;20209;-42
2023/12/27 06:10:02;;;;;;;4.47;2.80;;;5.00;99.90;;;;;;5028986;28;20214;-42
2023/12/27 06:12:28;;;;;;;7.23;3.37;;;5.00;99.90;;;;;;5040585;28;20178;-42
2023/12/27 06:14:54;;;;;;;5.80;3.10;;;5.00;99.90;;;;;;5028102;28;20190;-42
2023/12/27 06:17:20;;;;;;;6.73;3.17;;;4.90;99.90;;;;;;5039685;28;20197;-42
2023/12/27 06:19:45;;;;;;;4.30;3.20;;;5.00;99.90;;;;;;4997189;28;20320;-42
2023/12/27 06:22:11;;;;;;;5.77;2.93;;;5.00;99.90;;;;;;5008804;28;20175;-42
2023/12/27 06:24:37;;;;;;;3.80;2.87;;;5.00;99.90;;;;;;5024561;28;20177;-42
2023/12/27 06:27:06;;;;;;;4.23;2.80;;;5.00;99.90;;;;;;5023309;28;20270;-42
2023/12/27 06:29:33;;;;;;;7.73;2.60;;;5.00;99.90;;;;;;5023836;28;20257;-42
2023/12/27 06:32:00;;;;;;;7.47;2.93;;;5.00;99.90;;;;;;5021417;28;20204;-42
2023/12/27 06:34:26;;;;;;;5.83;2.73;;;4.90;99.90;;;;;;5019174;28;20214;-41
2023/12/27 06:36:51;;;;;;;5.17;2.97;;;4.90;99.90;;;;;;5013281;28;20229;-42
2023/12/27 06:39:19;;;;;;;7.63;6.50;;;4.90;99.90;;;;;;5012206;28;20194;-42
2023/12/27 06:41:45;;;;;;;5.70;4.77;;;4.80;99.90;;;;;;5041704;28;20185;-42
2023/12/27 06:44:11;;;;;;;5.70;4.67;;;4.70;99.90;;;;;;5018047;28;20189;-42
2023/12/27 06:46:37;;;;;;;6.53;4.00;;;4.70;99.90;;;;;;4998449;28;20183;-42
2023/12/27 06:49:03;;;;;;;5.50;3.70;;;4.70;99.90;;;;;;5020389;28;20259;-41
2023/12/27 06:51:29;;;;;;;5.00;3.57;;;4.70;99.90;;;;;;5002766;28;20176;-41
2023/12/27 06:53:55;;;;;;;7.57;3.93;;;4.70;99.90;;;;;;5015332;28;20208;-42
2023/12/27 06:56:21;;;;;;;5.83;3.43;;;4.70;99.90;;;;;;5013538;28;20197;-42
2023/12/27 06:58:46;;;;;;;5.33;4.20;;;4.70;99.90;;;;;;4995797;28;20271;-42
2023/12/27 07:01:14;;;;;;;6.30;4.13;;;4.70;99.90;;;;;;5022028;28;20177;-42
2023/12/27 07:03:40;;;;;;;9.47;5.70;;;4.60;99.90;;;;;;5015524;28;20328;-41
2023/12/27 07:06:07;;;;;;;9.90;6.63;;;4.60;99.90;;;;;;4996457;28;20272;-42
2023/12/27 07:08:33;;;;;;;10.27;5.00;;;4.50;99.90;;;;;;5011620;28;20297;-42
2023/12/27 07:10:59;;;;;;;6.23;4.40;;;4.40;99.90;;;;;;5007688;28;20189;-42
2023/12/27 07:13:25;;;;;;;7.33;5.03;;;4.40;99.90;;;;;;5015118;28;20242;-42
2023/12/27 07:15:51;;;;;;;8.07;4.57;;;4.30;99.90;;;;;;5029042;28;20182;-42
2023/12/27 07:18:16;;;;;;;9.10;5.23;;;4.30;99.90;;;;;;5011550;28;20216;-42
2023/12/27 07:20:42;;;;;;;7.40;5.17;;;4.40;99.90;;;;;;5026287;28;20181;-42
2023/12/27 07:23:09;;;;;;;8.43;5.17;;;4.40;99.90;;;;;;5017740;28;20185;-42
2023/12/27 07:25:35;;;;;;;7.97;5.63;;;4.40;99.90;;;;;;5013035;28;20205;-42
2023/12/27 07:28:01;;;;;;;8.97;6.13;;;4.40;99.90;;;;;;5045816;28;20209;-42
2023/12/27 07:30:27;;;;;;;8.23;6.17;;;4.50;99.90;;;;;;5010362;28;20224;-42
2023/12/27 07:32:53;;;;;;;9.03;6.20;;;4.50;99.90;;;;;;5022421;28;20186;-42
2023/12/27 07:35:19;;;;;;;8.93;6.00;;;4.50;99.90;;;;;;5020772;28;20174;-42
2023/12/27 07:37:46;;;;;;;7.57;5.30;;;4.50;99.90;;;;;;5039996;28;20232;-42
2023/12/27 07:40:14;;;;;;;9.10;5.03;;;4.40;99.90;;;;;;4998591;28;20193;-42
2023/12/27 07:42:40;;;;;;;6.63;4.73;;;4.40;99.90;;;;;;5004995;28;20269;-42
2023/12/27 07:45:06;;;;;;;5.27;4.37;;;4.40;99.90;;;;;;5023912;28;20284;-42
2023/12/27 07:47:33;;;;;;;5.87;4.07;;;4.40;99.90;;;;;;5015327;28;20209;-42
2023/12/27 07:49:58;;;;;;;7.70;4.77;;;4.40;99.90;;;;;;5018592;28;20209;-42
2023/12/27 07:52:24;;;;;;;9.60;5.40;;;4.40;99.90;;;;;;5013986;28;20192;-42
2023/12/27 07:54:50;;;;;;;7.07;4.70;;;4.50;99.90;;;;;;5009084;28;20209;-42
2023/12/27 07:57:16;;;;;;;8.60;4.60;;;4.50;99.90;;;;;;5016818;28;20205;-41
2023/12/27 07:59:42;;;;;;;9.63;5.57;;;4.50;99.90;;;;;;5015295;28;20189;-42
2023/12/27 08:02:08;;;;;;;8.43;4.60;;;4.60;99.90;;;;;;5002723;28;20189;-42
2023/12/27 08:04:34;;;;;;;9.73;5.17;;;4.60;99.90;;;;;;5024478;28;20189;-41
2023/12/27 08:07:00;;;;;;;6.27;3.90;;;4.50;99.90;;;;;;5019863;28;20400;-42
2023/12/27 08:09:26;;;;;;;5.10;3.80;;;4.50;99.90;;;;;;5010671;28;20204;-42
2023/12/27 08:11:53;;;;;;;5.17;3.67;;;4.40;99.90;;;;;;5013399;28;20192;-42
2023/12/27 08:14:18;;;;;;;6.40;3.80;;;4.40;99.90;;;;;;5022665;28;20216;-41
2023/12/27 08:16:44;;;;;;;9.47;4.43;;;4.40;99.90;;;;;;5014892;28;20183;-42
2023/12/27 08:19:10;;;;;;;5.53;3.77;;;4.50;99.90;;;;;;5010828;28;20185;-42
2023/12/27 08:21:36;;;;;;;5.67;4.10;;;4.50;99.90;;;;;;5015052;28;20288;-42
2023/12/27 08:24:02;;;;;;;7.07;4.43;;;4.60;99.90;;;;;;5007227;28;20189;-42
2023/12/27 08:26:28;;;;;;;9.30;6.33;;;4.60;99.90;;;;;;5012932;28;20181;-42
2023/12/27 08:28:53;;;;;;;7.97;6.10;;;4.70;99.90;;;;;;5024210;28;20233;-43
2023/12/27 08:31:20;;;;;;;7.60;6.23;;;4.80;99.90;;;;;;5000738;28;20183;-42
2023/12/27 08:33:50;;;;;;;10.90;5.87;;;4.80;99.90;;;;;;5010373;28;20301;-43
2023/12/27 08:36:17;;;;;;;12.83;6.93;;;4.90;99.90;;;;;;4994321;28;20190;-42
2023/12/27 08:38:43;;;;;;;13.13;7.50;;;4.90;99.90;;;;;;5015457;28;20216;-37
2023/12/27 08:41:09;;;;;;;13.27;7.80;;;4.90;99.90;;;;;;5014242;28;20239;-37
2023/12/27 08:43:36;;;;;;;11.03;7.53;;;4.90;99.90;;;;;;4999144;28;20182;-41
2023/12/27 08:46:05;;;;;;;15.13;9.30;;;5.00;99.90;;;;;;5008574;28;20189;-40
2023/12/27 08:48:31;;;;;;;17.83;10.63;;;5.00;99.90;;;;;;5037297;28;20207;-38
2023/12/27 08:50:58;;;;;;;17.07;9.67;;;4.90;99.90;;;;;;4999398;28;20204;-38
2023/12/27 08:53:25;;;;;;;19.03;10.50;;;5.00;99.90;;;;;;5006863;28;20184;-42
2023/12/27 08:55:51;;;;;;;18.10;10.97;;;4.90;99.90;;;;;;5033005;28;20175;-36
2023/12/27 08:58:17;;;;;;;17.80;10.73;;;4.90;99.90;;;;;;5024580;28;20247;-38
2023/12/27 09:00:43;;;;;;;11.83;7.50;;;4.90;99.90;;;;;;5017871;28;20182;-39
2023/12/27 09:03:08;;;;;;;10.23;6.37;;;4.90;99.90;;;;;;5012913;28;20216;-38
2023/12/27 09:05:34;;;;;;;12.23;5.80;;;4.90;99.90;;;;;;5016059;28;20255;-39
2023/12/27 09:08:00;;;;;;;13.03;6.47;;;4.90;99.90;;;;;;5001905;28;20217;-42
2023/12/27 09:10:26;;;;;;;24.67;11.47;;;5.00;99.90;;;;;;5005629;28;20324;-38
2023/12/27 09:12:52;;;;;;;17.03;8.63;;;5.10;99.90;;;;;;5008295;28;20181;-34
2023/12/27 09:15:18;;;;;;;11.80;6.73;;;5.20;99.90;;;;;;5010119;28;20186;-37
2023/12/27 09:17:44;;;;;;;10.37;7.17;;;5.30;99.90;;;;;;5017868;28;20199;-41
2023/12/27 09:20:10;;;;;;;14.97;7.37;;;5.50;99.90;;;;;;5017957;28;20201;-40
2023/12/27 09:22:36;;;;;;;12.03;6.73;;;5.60;99.90;;;;;;5040017;28;20181;-36
2023/12/27 09:25:03;;;;;;;13.17;6.33;;;5.60;99.90;;;;;;5007634;28;20175;-39
2023/12/27 09:27:30;;;;;;;9.63;5.73;;;5.60;99.90;;;;;;5024673;28;20207;-37
2023/12/27 09:29:56;;;;;;;7.97;5.20;;;5.60;99.90;;;;;;5013971;28;20198;-36
2023/12/27 09:32:21;;;;;;;12.67;5.70;;;5.70;99.90;;;;;;5007191;28;20182;-41
2023/12/27 09:34:47;;;;;;;8.83;5.33;;;5.70;99.90;;;;;;5023503;28;20186;-37
2023/12/27 09:37:13;;;;;;;9.37;5.23;;;5.80;99.90;;;;;;5014941;28;20236;-37
2023/12/27 09:39:39;;;;;;;10.37;5.60;;;6.00;99.90;;;;;;5008571;28;20182;-39
2023/12/27 09:42:06;;;;;;;9.20;4.03;;;6.10;99.90;;;;;;5008496;28;20285;-40
2023/12/27 09:44:36;;;;;;;8.07;4.30;;;6.20;99.90;;;;;;5014571;28;20642;-38
2023/12/27 09:47:04;;;;;;;5.87;4.07;;;6.40;99.90;;;;;;5011461;28;20257;-39
2023/12/27 09:49:33;;;;;;;6.90;4.27;;;6.50;99.90;;;;;;5033473;28;20210;-37
2023/12/27 09:52:02;;;;;;;4.60;4.07;;;6.60;99.90;;;;;;5021655;28;20182;-37
2023/12/27 09:54:29;;;;;;;6.47;3.47;;;6.70;99.90;;;;;;5006452;28;20186;-41
2023/12/27 09:56:58;;;;;;;7.47;3.87;;;6.80;99.90;;;;;;5009670;28;20199;-36
2023/12/27 09:59:36;;;;;;;6.70;3.30;;;6.90;99.90;;;;;;5002857;28;20214;-40
2023/12/27 10:02:04;;;;;;;5.27;3.00;;;7.00;99.90;;;;;;5013609;28;20249;-42
2023/12/27 10:04:44;;;;;;;5.43;3.03;;;7.00;99.90;;;;;;5009310;28;20213;-40
2023/12/27 10:07:14;;;;;;;6.90;3.60;;;7.00;99.90;;;;;;5030294;28;20233;-38
2023/12/27 10:09:41;;;;;;;6.33;3.33;;;7.10;99.90;;;;;;5030334;28;20301;-39
2023/12/27 10:12:07;;;;;;;4.67;3.13;;;7.30;99.90;;;;;;5020764;28;20182;-37
2023/12/27 10:14:37;;;;;;;7.93;3.70;;;7.40;99.90;;;;;;5016343;28;20174;-36
2023/12/27 10:17:04;;;;;;;6.83;3.40;;;7.50;99.90;;;;;;5008581;28;20206;-38
2023/12/27 10:19:44;;;;;;;7.03;3.13;;;7.60;99.90;;;;;;5024426;28;20192;-38
2023/12/27 10:22:12;;;;;;;4.67;3.07;;;7.60;99.90;;;;;;5021529;28;20262;-39
2023/12/27 10:24:39;;;;;;;4.37;3.00;;;7.60;99.90;;;;;;5008137;28;20182;-34
2023/12/27 10:27:06;;;;;;;5.07;2.97;;;7.70;99.90;;;;;;5021894;28;20218;-38
2023/12/27 10:29:33;;;;;;;6.40;3.10;;;7.80;99.90;;;;;;5012782;28;20202;-35
2023/12/27 10:32:00;;;;;;;5.70;3.00;;;7.80;99.90;;;;;;5005491;28;20194;-38
2023/12/27 10:34:27;;;;;;;4.50;3.20;;;7.90;99.90;;;;;;5012725;28;20189;-34
2023/12/27 10:36:58;;;;;;;5.00;3.50;;;8.00;99.90;;;;;;5006804;28;20202;-40
2023/12/27 10:39:25;;;;;;;6.43;3.30;;;8.00;99.90;;;;;;5011903;28;20248;-38
2023/12/27 10:41:55;;;;;;;6.63;3.57;;;8.10;99.90;;;;;;5014671;28;20178;-39
2023/12/27 10:44:21;;;;;;;3.83;2.87;;;8.10;99.90;;;;;;5011064;28;20198;-41
2023/12/27 10:46:51;;;;;;;5.13;2.90;;;8.10;99.90;;;;;;5012632;28;20217;-35
2023/12/27 10:49:18;;;;;;;5.03;2.90;;;8.20;99.90;;;;;;5007817;28;20199;-41
2023/12/27 10:51:48;;;;;;;4.53;3.40;;;8.20;99.90;;;;;;5019610;28;20188;-41
2023/12/27 10:54:16;;;;;;;5.67;3.10;;;8.00;99.90;;;;;;5019416;28;20210;-38
2023/12/27 10:56:44;;;;;;;6.77;3.37;;;8.00;99.90;;;;;;4992492;28;20193;-42
2023/12/27 10:59:10;;;;;;;5.13;3.10;;;7.90;99.90;;;;;;5017819;28;20193;-41
2023/12/27 11:01:41;;;;;;;4.67;3.10;;;7.80;99.90;;;;;;5015909;28;20191;-39
2023/12/27 11:04:09;;;;;;;5.23;3.13;;;7.80;99.90;;;;;;5022752;28;20183;-37
2023/12/27 11:06:39;;;;;;;3.70;2.83;;;7.80;99.90;;;;;;5008820;28;20219;-41
2023/12/27 11:09:09;;;;;;;5.40;3.43;;;7.70;99.90;;;;;;5015422;28;20228;-41
2023/12/27 11:11:37;;;;;;;4.97;3.33;;;7.80;99.90;;;;;;5006088;28;20233;-40
2023/12/27 11:14:07;;;;;;;4.90;3.07;;;7.80;99.90;;;;;;5038417;28;20210;-39
2023/12/27 11:16:35;;;;;;;3.73;2.90;;;8.00;99.90;;;;;;5013745;28;20183;-39
2023/12/27 11:19:06;;;;;;;3.97;2.70;;;8.10;99.90;;;;;;5022434;28;20269;-39
2023/12/27 11:21:36;;;;;;;5.37;2.93;;;8.20;99.90;;;;;;5025503;28;20276;-39
2023/12/27 11:24:05;;;;;;;5.67;2.93;;;8.40;99.90;;;;;;5035448;28;20190;-40
2023/12/27 11:26:36;;;;;;;5.63;3.13;;;8.50;99.90;;;;;;5043346;28;20217;-40
2023/12/27 11:29:22;;;;;;;6.57;3.10;;;8.60;99.90;;;;;;5036817;28;20206;-43
2023/12/27 11:31:48;;;;;;;6.00;3.10;;;8.70;99.90;;;;;;4995758;28;20190;-38
2023/12/27 11:34:14;;;;;;;4.60;2.93;;;8.70;99.90;;;;;;5007786;28;20178;-38
2023/12/27 11:36:39;;;;;;;6.27;3.40;;;8.70;99.90;;;;;;5007627;28;20190;-39
2023/12/27 11:39:26;;;;;;;5.67;2.77;;;8.80;99.90;;;;;;5008132;28;20192;-37
2023/12/27 11:41:52;;;;;;;5.53;2.70;;;8.90;99.90;;;;;;5025835;28;20240;-38
2023/12/27 11:44:18;;;;;;;4.87;2.90;;;9.00;99.90;;;;;;5000801;28;20193;-37
2023/12/27 11:46:44;;;;;;;3.53;2.70;;;9.10;99.90;;;;;;5010727;28;20179;-39
2023/12/27 11:49:21;;;;;;;5.33;2.90;;;9.20;99.90;;;;;;5005053;28;20206;-39
2023/12/27 11:51:47;;;;;;;5.10;2.90;;;9.30;99.90;;;;;;5010259;28;20231;-38
2023/12/27 11:54:24;;;;;;;5.57;3.10;;;9.40;99.90;;;;;;5019432;28;20286;-35
2023/12/27 11:56:52;;;;;;;4.23;2.83;;;9.50;99.90;;;;;;5010404;28;20175;-40
2023/12/27 11:59:19;;;;;;;6.97;3.27;;;9.50;99.90;;;;;;5009230;28;20193;-41
2023/12/27 12:01:47;;;;;;;4.83;3.20;;;9.50;99.90;;;;;;5007458;28;20188;-39
2023/12/27 12:04:21;;;;;;;5.67;3.07;;;9.40;99.90;;;;;;5007317;28;20178;-41
2023/12/27 12:07:15;;;;;;;6.20;3.10;;;9.40;99.90;;;;;;5013903;28;20190;-41
2023/12/27 12:09:46;;;;;;;4.57;3.03;;;9.40;99.90;;;;;;5011036;28;20257;-40
2023/12/27 12:12:24;;;;;;;4.40;2.83;;;9.40;99.90;;;;;;5020173;28;20182;-39
2023/12/27 12:14:54;;;;;;;5.13;2.83;;;9.50;99.90;;;;;;5004550;28;20181;-40
2023/12/27 12:17:21;;;;;;;4.90;2.47;;;9.50;99.90;;;;;;5025669;28;20200;-40
2023/12/27 12:19:51;;;;;;;4.67;2.97;;;9.50;99.90;;;;;;5022706;28;20200;-37
2023/12/27 12:22:17;;;;;;;5.90;2.97;;;9.50;99.90;;;;;;5003256;28;20194;-39
2023/12/27 12:24:46;;;;;;;4.03;2.77;;;9.50;99.90;;;;;;5012815;28;20190;-39
2023/12/27 12:27:26;;;;;;;5.40;3.00;;;9.50;99.90;;;;;;5012816;28;20214;-42
2023/12/27 12:29:57;;;;;;;7.10;3.17;;;9.60;99.90;;;;;;5027832;28;20258;-40
2023/12/27 12:32:25;;;;;;;3.67;2.47;;;9.60;99.90;;;;;;5040993;28;20196;-36
2023/12/27 12:34:51;;;;;;;5.10;3.23;;;9.70;99.90;;;;;;5016576;28;20171;-37
2023/12/27 12:37:18;;;;;;;3.97;2.97;;;9.70;99.90;;;;;;5020209;28;20226;-36
2023/12/27 12:39:44;;;;;;;4.03;3.03;;;9.70;99.90;;;;;;5015605;28;20185;-41
2023/12/27 12:42:10;;;;;;;5.37;3.73;;;9.80;99.90;;;;;;5013499;28;20234;-43
2023/12/27 12:44:37;;;;;;;7.20;4.73;;;9.80;99.90;;;;;;5014880;28;20227;-41
2023/12/27 12:47:04;;;;;;;9.37;6.77;;;9.80;99.90;;;;;;5006067;28;20214;-38
2023/12/27 12:49:30;;;;;;;6.07;4.10;;;9.80;99.90;;;;;;4996026;28;20223;-41
2023/12/27 12:52:06;;;;;;;6.03;3.33;;;9.80;99.90;;;;;;5022723;28;20195;-37
2023/12/27 12:54:33;;;;;;;6.87;3.73;;;9.80;99.90;;;;;;5018375;28;20239;-41
2023/12/27 12:57:02;;;;;;;4.33;3.20;;;9.80;99.90;;;;;;5023783;28;20213;-36
2023/12/27 12:59:29;;;;;;;4.53;3.10;;;9.80;99.90;;;;;;5009860;28;20177;-42
2023/12/27 13:01:56;;;;;;;8.10;3.90;;;9.90;99.90;;;;;;5012669;28;20194;-44
2023/12/27 13:04:25;;;;;;;5.83;4.10;;;9.90;99.90;;;;;;5001719;28;20192;-43
2023/12/27 13:07:03;;;;;;;5.80;3.97;;;9.90;99.90;;;;;;5001150;28;20308;-43
2023/12/27 13:09:30;;;;;;;5.73;3.80;;;9.90;99.90;;;;;;5013924;28;20214;-41
2023/12/27 13:11:57;;;;;;;5.33;3.57;;;9.90;99.90;;;;;;5022985;28;20198;-43
2023/12/27 13:14:23;;;;;;;6.03;4.27;;;9.90;99.90;;;;;;4998444;28;20189;-43
2023/12/27 13:16:49;;;;;;;4.60;3.80;;;9.90;99.90;;;;;;5010837;28;20236;-42
2023/12/27 13:19:18;;;;;;;5.40;3.50;;;9.90;99.90;;;;;;5014442;28;20187;-43
2023/12/27 13:21:44;;;;;;;5.17;4.07;;;9.90;99.90;;;;;;5019118;28;20200;-44
2023/12/27 13:24:09;;;;;;;6.37;4.03;;;9.90;99.90;;;;;;5014711;28;20188;-44
2023/12/27 13:26:35;;;;;;;5.90;4.20;;;9.90;99.90;;;;;;5001116;28;20215;-44
2023/12/27 13:29:01;;;;;;;5.27;4.07;;;9.90;99.90;;;;;;4993508;28;20220;-41
2023/12/27 13:31:28;;;;;;;6.50;3.90;;;10.00;99.90;;;;;;5016347;28;20185;-43
2023/12/27 13:33:55;;;;;;;5.60;4.03;;;10.00;99.90;;;;;;5010913;28;20242;-42
2023/12/27 13:36:21;;;;;;;6.37;3.83;;;10.00;99.90;;;;;;4993895;28;20272;-44
2023/12/27 13:38:48;;;;;;;8.53;4.17;;;9.90;99.90;;;;;;5030019;28;20252;-42
2023/12/27 13:41:14;;;;;;;6.10;4.40;;;9.90;99.90;;;;;;4990459;28;20308;-31
2023/12/27 13:43:40;;;;;;;6.23;4.27;;;9.90;99.90;;;;;;5022905;28;20184;-44
2023/12/27 13:46:07;;;;;;;6.70;4.37;;;9.90;99.90;;;;;;4986081;28;20201;-40
2023/12/27 13:48:34;;;;;;;7.10;4.07;;;9.80;99.90;;;;;;4997437;28;20197;-44
2023/12/27 13:51:00;;;;;;;5.40;3.83;;;9.80;99.90;;;;;;5009060;28;20298;-41
2023/12/27 13:53:26;;;;;;;7.50;4.47;;;9.80;99.90;;;;;;5015764;28;20216;-44
2023/12/27 13:55:52;;;;;;;5.37;3.90;;;9.80;99.90;;;;;;5006724;28;20182;-42
2023/12/27 13:58:17;;;;;;;6.23;4.00;;;9.80;99.90;;;;;;5018688;28;20206;-43
2023/12/27 14:00:43;;;;;;;5.43;3.50;;;9.80;99.90;;;;;;5008145;28;20185;-43
2023/12/27 14:03:09;;;;;;;5.47;3.10;;;9.80;99.90;;;;;;5009484;28;20216;-44
2023/12/27 14:05:37;;;;;;;5.83;3.40;;;9.70;99.90;;;;;;5024507;28;20190;-43
2023/12/27 14:08:05;;;;;;;3.97;3.33;;;9.70;99.90;;;;;;5007279;28;20221;-42
2023/12/27 14:10:31;;;;;;;6.90;3.20;;;9.70;99.90;;;;;;4999748;28;20256;-44
2023/12/27 14:12:57;;;;;;;5.00;3.03;;;9.60;99.90;;;;;;5017981;28;20182;-43
2023/12/27 14:15:23;;;;;;;4.00;2.97;;;9.60;99.90;;;;;;4998167;28;20178;-44
2023/12/27 14:17:49;;;;;;;4.40;3.10;;;9.60;99.90;;;;;;5017460;28;20251;-44
2023/12/27 14:20:15;;;;;;;5.40;3.23;;;9.60;99.90;;;;;;5014437;28;20440;-44
2023/12/27 14:22:41;;;;;;;4.90;3.07;;;9.50;99.90;;;;;;5024964;28;20274;-42
2023/12/27 14:25:09;;;;;;;4.73;3.10;;;9.40;99.90;;;;;;5004411;28;20194;-39
2023/12/27 14:27:35;;;;;;;4.60;3.17;;;9.40;99.90;;;;;;5011956;28;20213;-37
2023/12/27 14:30:02;;;;;;;7.40;3.60;;;9.30;99.90;;;;;;5009287;28;20217;-36
2023/12/27 14:32:28;;;;;;;4.13;3.10;;;9.20;99.90;;;;;;5025288;28;20184;-42
2023/12/27 14:34:54;;;;;;;3.87;2.80;;;9.20;99.90;;;;;;5022864;28;20180;-42
2023/12/27 14:37:20;;;;;;;4.77;2.83;;;9.10;99.90;;;;;;5019600;28;20231;-42
2023/12/27 14:39:46;;;;;;;4.30;2.80;;;9.10;99.90;;;;;;5011674;28;20185;-42
2023/12/27 14:42:13;;;;;;;4.67;2.80;;;9.10;99.90;;;;;;5016965;28;20186;-42
2023/12/27 14:44:38;;;;;;;7.17;3.10;;;9.00;99.90;;;;;;5012945;28;20262;-44
2023/12/27 14:47:08;;;;;;;4.60;3.10;;;9.00;99.90;;;;;;4995824;28;20688;-40
2023/12/27 14:49:34;;;;;;;5.77;3.30;;;8.90;99.90;;;;;;5012280;28;20235;-44
2023/12/27 14:52:00;;;;;;;5.33;3.23;;;8.90;99.90;;;;;;5010756;28;20219;-43
2023/12/27 14:54:25;;;;;;;7.70;3.23;;;8.90;99.90;;;;;;5000717;28;20209;-42
2023/12/27 14:56:52;;;;;;;4.80;3.50;;;8.70;99.90;;;;;;5016190;28;20209;-42
2023/12/27 14:59:18;;;;;;;7.00;3.30;;;8.70;99.90;;;;;;5019301;28;20187;-42
2023/12/27 15:01:44;;;;;;;8.77;3.80;;;8.60;99.90;;;;;;5002434;28;20238;-38
2023/12/27 15:04:10;;;;;;;7.80;3.60;;;8.50;99.90;;;;;;5020301;28;20226;-41
2023/12/27 15:06:36;;;;;;;6.80;4.73;;;8.40;99.90;;;;;;5018540;28;20244;-39
2023/12/27 15:09:03;;;;;;;5.37;3.67;;;8.30;99.90;;;;;;5013088;28;20239;-42
2023/12/27 15:11:29;;;;;;;7.03;4.23;;;8.20;99.90;;;;;;5026539;28;20214;-42
2023/12/27 15:13:55;;;;;;;6.80;3.77;;;8.10;99.90;;;;;;5002578;28;20185;-42
2023/12/27 15:16:22;;;;;;;6.73;3.87;;;8.00;99.90;;;;;;5005906;28;20246;-43